Saimaagracht — PHCQ — position and weather

sailwx.info

Track history (hours):
 
Tides and Currents Weather Stations Pressure Air Temp Water Temp Dewpoint Dewpoint Depression Visibility Wind Speed Wind Dir Waves Ship Positions

Saimaagracht

Last reported at 2019-Aug-16 09:42 UTC. Time now 2019-Aug-17 10:49 UTC.
Position N 60°22' E 019°02'.

Length 173 m; beam 26 m.

Type: Cargo ship. MMSI: 246293000.

Date/timePositionNaut miles runAvg speedWind from/ knotsBaromVisibWave heightAir tempDewpointWater temp
2019-Aug-16 09:42N 60°22' E 019°02'415.7
2019-Aug-16 09:28N 60°19' E 019°01'715.3
2019-Aug-16 09:00N 60°12' E 019°05'815.5
2019-Aug-16 08:30N 60°06' E 019°15'815.6
2019-Aug-16 08:00N 60°00' E 019°25'815.8
2019-Aug-16 07:30N 59°54' E 019°35'815.7
2019-Aug-16 07:00N 59°48' E 019°45'815.3
2019-Aug-16 06:28N 59°42' E 019°56'914.9
2019-Aug-16 05:52N 59°36' E 020°09'1414.7
2019-Aug-16 04:57N 59°35' E 020°36'1414.7
2019-Aug-16 04:01N 59°33' E 021°03'014.4
2019-Aug-16 03:59N 59°33' E 021°03'714.8
2019-Aug-16 03:30N 59°32' E 021°17'714.9
2019-Aug-16 03:00N 59°31' E 021°32'715.0
2019-Aug-16 02:31N 59°30' E 021°46'815.0
2019-Aug-16 02:00N 59°28' E 022°01'1714.0
2019-Aug-16 00:48N 59°31' E 022°34'614.8
2019-Aug-16 00:25N 59°34' E 022°44'614.8
2019-Aug-16 00:00N 59°35' E 022°55'815.1
2019-Aug-15 23:30N 59°37' E 023°10'714.8
2019-Aug-15 23:01N 59°39' E 023°24'714.5
2019-Aug-15 22:30N 59°41' E 023°38'714.7
2019-Aug-15 22:00N 59°43' E 023°52'714.1
2019-Aug-15 21:30N 59°47' E 024°03'714.7
2019-Aug-15 21:00N 59°53' E 024°11'3 0.1
2019-Aug-14 14:27N 59°56' E 024°14'3 0.8
2019-Aug-14 10:30N 59°54' E 024°10'0 0.0
2019-Aug-14 09:41N 59°54' E 024°10'0 0.0
2019-Aug-14 09:20N 59°54' E 024°10'0 0.4
2019-Aug-14 08:25N 59°53' E 024°10'1513.8
2019-Aug-14 07:19N 59°40' E 023°55'614.4
2019-Aug-14 06:56N 59°37' E 023°46'715.0
2019-Aug-14 06:26N 59°34' E 023°32'615.2
2019-Aug-14 06:00N 59°32' E 023°20'815.2
2019-Aug-14 05:30N 59°30' E 023°06'714.9
2019-Aug-14 05:00N 59°28' E 022°52'714.8
2019-Aug-14 04:30N 59°25' E 022°38'2614.5
2019-Aug-14 02:42N 59°22' E 021°47'415.0
2019-Aug-14 02:27N 59°22' E 021°40'715.1
2019-Aug-14 02:00N 59°22' E 021°27'1015.1
2019-Aug-14 01:19N 59°23' E 021°07'4813.7
2019-Aug-13 21:51N 59°45' E 019°43'514.9
2019-Aug-13 21:29N 59°49' E 019°36'714.8
2019-Aug-13 21:00N 59°54' E 019°27'714.9
2019-Aug-13 20:30N 60°00' E 019°17'714.5
2019-Aug-13 20:00N 60°06' E 019°08'714.3
2019-Aug-13 19:30N 60°12' E 019°00'714.5
2019-Aug-13 19:00N 60°19' E 018°60'714.6
2019-Aug-13 18:30N 60°26' E 018°59'714.4
2019-Aug-13 18:00N 60°33' E 018°60'17614.1
2019-Aug-13 05:32N 63°24' E 020°33'413.9
2019-Aug-13 05:17N 63°27' E 020°37'413.7
2019-Aug-13 04:59N 63°31' E 020°41'813.8
2019-Aug-13 04:24N 63°34' E 020°57'  
2019-Aug-10 05:00N 63°35' E 021°02'713.7
2019-Aug-10 04:30N 63°33' E 020°48'913.9
2019-Aug-10 03:54N 63°26' E 020°36'614.5
2019-Aug-10 03:30N 63°21' E 020°29'914.1
2019-Aug-10 02:50N 63°12' E 020°23'11814.5
2019-Aug-09 18:44N 61°16' E 020°58'314.8
2019-Aug-09 18:31N 61°12' E 020°60'713.3
2019-Aug-09 18:01N 61°08' E 021°09'612.2
2019-Aug-09 17:31N 61°06' E 021°21'3 5.2
2019-Aug-09 17:00N 61°08' E 021°26'0 0.0
2019-Aug-09 16:30N 61°08' E 021°26'0 0.0
2019-Aug-09 16:00N 61°08' E 021°26'0 0.0
2019-Aug-09 15:27N 61°08' E 021°26'0 0.0
2019-Aug-09 14:57N 61°08' E 021°26'0 0.0
2019-Aug-09 14:27N 61°08' E 021°26'0 0.0
2019-Aug-09 13:57N 61°08' E 021°26'0 0.0
2019-Aug-09 13:27N 61°08' E 021°26'0 0.0
2019-Aug-09 13:00N 61°08' E 021°26'0 0.0
2019-Aug-09 12:26N 61°08' E 021°26'0 0.0
2019-Aug-09 12:00N 61°08' E 021°26'0 0.0
2019-Aug-09 11:26N 61°08' E 021°26'0 0.0
2019-Aug-09 10:59N 61°08' E 021°26'0 0.0
2019-Aug-09 10:26N 61°08' E 021°26'0 0.0
2019-Aug-09 09:59N 61°08' E 021°26'0 0.0
2019-Aug-09 09:29N 61°08' E 021°26'0 0.0
2019-Aug-09 08:59N 61°08' E 021°26'0 0.0
2019-Aug-09 08:29N 61°08' E 021°26'0 0.0
2019-Aug-09 07:59N 61°08' E 021°26'0 0.0
2019-Aug-09 07:29N 61°08' E 021°26'0 0.0
2019-Aug-09 06:59N 61°08' E 021°26'0 0.0
2019-Aug-09 06:26N 61°08' E 021°26'0 0.0
2019-Aug-09 05:59N 61°08' E 021°26'0 0.0
2019-Aug-09 05:26N 61°08' E 021°26'0 0.0
2019-Aug-09 04:59N 61°08' E 021°26'0 0.0
2019-Aug-09 04:26N 61°08' E 021°26'0 0.0
2019-Aug-09 03:59N 61°08' E 021°26'0 0.0
2019-Aug-09 03:23N 61°08' E 021°26'0 0.0
2019-Aug-09 02:56N 61°08' E 021°26'0 0.0
2019-Aug-09 02:29N 61°08' E 021°26'0 0.0
2019-Aug-09 01:29N 61°08' E 021°26'0 0.0
2019-Aug-09 00:56N 61°08' E 021°26'0 0.0
2019-Aug-09 00:29N 61°08' E 021°26'0 0.0
2019-Aug-08 23:59N 61°08' E 021°26'0 0.0
2019-Aug-08 23:29N 61°08' E 021°26'0 0.0
2019-Aug-08 22:59N 61°08' E 021°26'0 0.0
2019-Aug-08 22:29N 61°08' E 021°26'0 0.0
2019-Aug-08 21:59N 61°08' E 021°26'0 0.0
2019-Aug-08 21:08N 61°08' E 021°26'0 0.0
2019-Aug-08 20:59N 61°08' E 021°26'0 0.0
2019-Aug-08 20:29N 61°08' E 021°26'0 0.0
2019-Aug-08 19:53N 61°08' E 021°26'0 0.0
2019-Aug-08 19:23N 61°08' E 021°26'0 0.0
2019-Aug-08 18:59N 61°08' E 021°26'0 0.0
2019-Aug-08 18:23N 61°08' E 021°26'0 0.0
2019-Aug-08 17:53N 61°08' E 021°26'0 0.0
2019-Aug-08 17:29N 61°08' E 021°26'0 0.0
2019-Aug-08 16:56N 61°08' E 021°26'0 0.0
2019-Aug-08 16:29N 61°08' E 021°26'0 0.0
2019-Aug-08 15:56N 61°08' E 021°26'0 0.0
2019-Aug-08 15:29N 61°08' E 021°26'0 0.0
2019-Aug-08 14:59N 61°08' E 021°26'0 0.0
2019-Aug-08 14:29N 61°08' E 021°26'0 0.0
2019-Aug-08 13:53N 61°08' E 021°26'0 0.0
2019-Aug-08 13:29N 61°08' E 021°26'0 0.0
2019-Aug-08 12:56N 61°08' E 021°26'0 0.0
2019-Aug-08 12:26N 61°08' E 021°26'0 0.0
2019-Aug-08 11:53N 61°08' E 021°26'0 0.0
2019-Aug-08 11:26N 61°08' E 021°26'0 0.0
2019-Aug-08 10:59N 61°08' E 021°26'0 0.0
2019-Aug-08 10:23N 61°08' E 021°26'0 0.0
2019-Aug-08 09:59N 61°08' E 021°26'0 0.0
2019-Aug-08 09:29N 61°08' E 021°26'0 0.0
2019-Aug-08 08:59N 61°08' E 021°26'0 0.0
2019-Aug-08 08:26N 61°08' E 021°26'0 0.0
2019-Aug-08 07:59N 61°08' E 021°26'0 0.0
2019-Aug-08 07:29N 61°08' E 021°26'0 0.0
2019-Aug-08 06:59N 61°08' E 021°26'0 0.0
2019-Aug-08 06:29N 61°08' E 021°26'0 0.0
2019-Aug-08 05:59N 61°08' E 021°26'0 0.0
2019-Aug-08 05:29N 61°08' E 021°26'0 0.0
2019-Aug-08 04:59N 61°08' E 021°26'0 0.0
2019-Aug-08 04:29N 61°08' E 021°26'0 0.0
2019-Aug-08 03:59N 61°08' E 021°26'0 0.0
2019-Aug-08 03:29N 61°08' E 021°26'0 0.0
2019-Aug-08 02:59N 61°08' E 021°26'0 0.0
2019-Aug-08 02:29N 61°08' E 021°26'0 0.0
2019-Aug-08 01:59N 61°08' E 021°26'0 0.0
2019-Aug-08 01:29N 61°08' E 021°26'0 0.0
2019-Aug-08 00:53N 61°08' E 021°26'0 0.0
2019-Aug-08 00:29N 61°08' E 021°26'0 0.0
2019-Aug-07 23:56N 61°08' E 021°26'0 0.0
2019-Aug-07 23:28N 61°08' E 021°26'0 0.0
2019-Aug-07 22:59N 61°08' E 021°26'0 0.0
2019-Aug-07 22:25N 61°08' E 021°26'0 0.0
2019-Aug-07 21:58N 61°08' E 021°26'0 0.0
2019-Aug-07 21:25N 61°08' E 021°26'0 0.0
2019-Aug-07 20:59N 61°08' E 021°26'0 0.0
2019-Aug-07 20:25N 61°08' E 021°26'0 0.0
2019-Aug-07 19:55N 61°08' E 021°26'0 0.0
2019-Aug-07 19:22N 61°08' E 021°26'0 0.0
2019-Aug-07 18:55N 61°08' E 021°26'0 0.0
2019-Aug-07 18:22N 61°08' E 021°26'0 0.0
2019-Aug-07 17:58N 61°08' E 021°26'0 0.0
2019-Aug-07 17:28N 61°08' E 021°26'0 0.0
2019-Aug-07 16:58N 61°08' E 021°26'0 0.0
2019-Aug-07 16:28N 61°08' E 021°26'0 0.0
2019-Aug-07 15:58N 61°08' E 021°26'0 0.0
2019-Aug-07 15:28N 61°08' E 021°26'0 0.0
2019-Aug-07 14:59N 61°08' E 021°26'0 0.0
2019-Aug-07 14:28N 61°08' E 021°26'0 0.0
2019-Aug-07 13:58N 61°08' E 021°26'0 0.0
2019-Aug-07 13:25N 61°08' E 021°26'0 0.0
2019-Aug-07 12:58N 61°08' E 021°26'0 0.0
2019-Aug-07 12:25N 61°08' E 021°26'0 0.0
2019-Aug-07 11:58N 61°08' E 021°26'0 0.0
2019-Aug-07 11:28N 61°08' E 021°26'0 0.0
2019-Aug-07 10:46N 61°08' E 021°26'0 0.0
2019-Aug-07 10:25N 61°08' E 021°26'0 0.0
2019-Aug-07 09:58N 61°08' E 021°26'0 0.0
2019-Aug-07 09:28N 61°08' E 021°26'0 0.0
2019-Aug-07 08:58N 61°08' E 021°26'0 0.0
2019-Aug-07 08:25N 61°08' E 021°26'0 0.0
2019-Aug-07 07:58N 61°08' E 021°26'0 0.0
2019-Aug-07 07:28N 61°08' E 021°26'0 0.0
2019-Aug-07 06:58N 61°08' E 021°26'0 0.0
2019-Aug-07 06:25N 61°08' E 021°26'0 0.0
2019-Aug-07 05:58N 61°08' E 021°26'0 0.0
2019-Aug-07 05:25N 61°08' E 021°26'0 0.0
2019-Aug-07 04:58N 61°08' E 021°26'0 0.0
2019-Aug-07 04:28N 61°08' E 021°26'0 0.0
2019-Aug-07 03:58N 61°08' E 021°26'0 0.0
2019-Aug-07 03:28N 61°08' E 021°26'0 0.0
2019-Aug-07 02:58N 61°08' E 021°26'0 0.0
2019-Aug-07 02:28N 61°08' E 021°26'0 0.0
2019-Aug-07 01:58N 61°08' E 021°26'0 0.0
2019-Aug-07 01:28N 61°08' E 021°26'0 0.0
2019-Aug-07 00:58N 61°08' E 021°26'0 0.0
2019-Aug-07 00:25N 61°08' E 021°26'0 0.0
2019-Aug-06 23:58N 61°08' E 021°26'0 0.0
2019-Aug-06 23:28N 61°08' E 021°26'0 0.0
2019-Aug-06 22:58N 61°08' E 021°26'0 0.0
2019-Aug-06 22:25N 61°08' E 021°26'0 0.0
2019-Aug-06 21:58N 61°08' E 021°26'0 0.0
2019-Aug-06 21:25N 61°08' E 021°26'0 0.0
2019-Aug-06 20:55N 61°08' E 021°26'0 0.0
2019-Aug-06 20:25N 61°08' E 021°26'0 0.0
2019-Aug-06 19:46N 61°08' E 021°26'0 0.0
2019-Aug-06 19:25N 61°08' E 021°26'0 0.4
2019-Aug-06 19:00N 61°08' E 021°25'2 3.1
2019-Aug-06 18:30N 61°07' E 021°23'5 9.8
2019-Aug-06 18:00N 61°07' E 021°13'611.7
2019-Aug-06 17:30N 61°09' E 021°02'6414.3
2019-Aug-06 13:01N 60°34' E 019°13'015.0
2019-Aug-06 13:00N 60°34' E 019°13'1013.0
2019-Aug-06 12:12N 60°25' E 019°01'314.5
2019-Aug-06 12:00N 60°22' E 019°01'714.3
2019-Aug-06 11:30N 60°15' E 019°03'714.3
2019-Aug-06 11:00N 60°09' E 019°10'714.7
2019-Aug-06 10:30N 60°03' E 019°19'714.8
2019-Aug-06 10:00N 59°57' E 019°29'  
Track history (hours):
 
Tides and Currents Weather Stations Pressure Air Temp Water Temp Dewpoint Dewpoint Depression Visibility Wind Speed Wind Dir Waves Ship Positions

Saimaagracht

Last reported at 2019-Aug-16 09:42 UTC. Time now 2019-Aug-17 10:49 UTC.
Position N 60°22' E 019°02'.

Length 173 m; beam 26 m.

Type: Cargo ship. MMSI: 246293000.

Date/timePositionNaut miles runAvg speedWind from/ knotsBaromVisibWave heightAir tempDewpointWater temp
2019-Aug-16 09:42N 60°22' E 019°02'415.7
2019-Aug-16 09:28N 60°19' E 019°01'715.3
2019-Aug-16 09:00N 60°12' E 019°05'815.5
2019-Aug-16 08:30N 60°06' E 019°15'815.6
2019-Aug-16 08:00N 60°00' E 019°25'815.8
2019-Aug-16 07:30N 59°54' E 019°35'815.7
2019-Aug-16 07:00N 59°48' E 019°45'815.3
2019-Aug-16 06:28N 59°42' E 019°56'914.9
2019-Aug-16 05:52N 59°36' E 020°09'1414.7
2019-Aug-16 04:57N 59°35' E 020°36'1414.7
2019-Aug-16 04:01N 59°33' E 021°03'014.4
2019-Aug-16 03:59N 59°33' E 021°03'714.8
2019-Aug-16 03:30N 59°32' E 021°17'714.9
2019-Aug-16 03:00N 59°31' E 021°32'715.0
2019-Aug-16 02:31N 59°30' E 021°46'815.0
2019-Aug-16 02:00N 59°28' E 022°01'1714.0
2019-Aug-16 00:48N 59°31' E 022°34'614.8
2019-Aug-16 00:25N 59°34' E 022°44'614.8
2019-Aug-16 00:00N 59°35' E 022°55'815.1
2019-Aug-15 23:30N 59°37' E 023°10'714.8
2019-Aug-15 23:01N 59°39' E 023°24'714.5
2019-Aug-15 22:30N 59°41' E 023°38'714.7
2019-Aug-15 22:00N 59°43' E 023°52'714.1
2019-Aug-15 21:30N 59°47' E 024°03'714.7
2019-Aug-15 21:00N 59°53' E 024°11'3 0.1
2019-Aug-14 14:27N 59°56' E 024°14'3 0.8
2019-Aug-14 10:30N 59°54' E 024°10'0 0.0
2019-Aug-14 09:41N 59°54' E 024°10'0 0.0
2019-Aug-14 09:20N 59°54' E 024°10'0 0.4
2019-Aug-14 08:25N 59°53' E 024°10'1513.8
2019-Aug-14 07:19N 59°40' E 023°55'614.4
2019-Aug-14 06:56N 59°37' E 023°46'715.0
2019-Aug-14 06:26N 59°34' E 023°32'615.2
2019-Aug-14 06:00N 59°32' E 023°20'815.2
2019-Aug-14 05:30N 59°30' E 023°06'714.9
2019-Aug-14 05:00N 59°28' E 022°52'714.8
2019-Aug-14 04:30N 59°25' E 022°38'2614.5
2019-Aug-14 02:42N 59°22' E 021°47'415.0
2019-Aug-14 02:27N 59°22' E 021°40'715.1
2019-Aug-14 02:00N 59°22' E 021°27'1015.1
2019-Aug-14 01:19N 59°23' E 021°07'4813.7
2019-Aug-13 21:51N 59°45' E 019°43'514.9
2019-Aug-13 21:29N 59°49' E 019°36'714.8
2019-Aug-13 21:00N 59°54' E 019°27'714.9
2019-Aug-13 20:30N 60°00' E 019°17'714.5
2019-Aug-13 20:00N 60°06' E 019°08'714.3
2019-Aug-13 19:30N 60°12' E 019°00'714.5
2019-Aug-13 19:00N 60°19' E 018°60'714.6
2019-Aug-13 18:30N 60°26' E 018°59'714.4
2019-Aug-13 18:00N 60°33' E 018°60'17614.1
2019-Aug-13 05:32N 63°24' E 020°33'413.9
2019-Aug-13 05:17N 63°27' E 020°37'413.7
2019-Aug-13 04:59N 63°31' E 020°41'813.8
2019-Aug-13 04:24N 63°34' E 020°57'  
2019-Aug-10 05:00N 63°35' E 021°02'713.7
2019-Aug-10 04:30N 63°33' E 020°48'913.9
2019-Aug-10 03:54N 63°26' E 020°36'614.5
2019-Aug-10 03:30N 63°21' E 020°29'914.1
2019-Aug-10 02:50N 63°12' E 020°23'11814.5
2019-Aug-09 18:44N 61°16' E 020°58'314.8
2019-Aug-09 18:31N 61°12' E 020°60'713.3
2019-Aug-09 18:01N 61°08' E 021°09'612.2
2019-Aug-09 17:31N 61°06' E 021°21'3 5.2
2019-Aug-09 17:00N 61°08' E 021°26'0 0.0
2019-Aug-09 16:30N 61°08' E 021°26'0 0.0
2019-Aug-09 16:00N 61°08' E 021°26'0 0.0
2019-Aug-09 15:27N 61°08' E 021°26'0 0.0
2019-Aug-09 14:57N 61°08' E 021°26'0 0.0
2019-Aug-09 14:27N 61°08' E 021°26'0 0.0
2019-Aug-09 13:57N 61°08' E 021°26'0 0.0
2019-Aug-09 13:27N 61°08' E 021°26'0 0.0
2019-Aug-09 13:00N 61°08' E 021°26'0 0.0
2019-Aug-09 12:26N 61°08' E 021°26'0 0.0
2019-Aug-09 12:00N 61°08' E 021°26'0 0.0
2019-Aug-09 11:26N 61°08' E 021°26'0 0.0
2019-Aug-09 10:59N 61°08' E 021°26'0 0.0
2019-Aug-09 10:26N 61°08' E 021°26'0 0.0
2019-Aug-09 09:59N 61°08' E 021°26'0 0.0
2019-Aug-09 09:29N 61°08' E 021°26'0 0.0
2019-Aug-09 08:59N 61°08' E 021°26'0 0.0
2019-Aug-09 08:29N 61°08' E 021°26'0 0.0
2019-Aug-09 07:59N 61°08' E 021°26'0 0.0
2019-Aug-09 07:29N 61°08' E 021°26'0 0.0
2019-Aug-09 06:59N 61°08' E 021°26'0 0.0
2019-Aug-09 06:26N 61°08' E 021°26'0 0.0
2019-Aug-09 05:59N 61°08' E 021°26'0 0.0
2019-Aug-09 05:26N 61°08' E 021°26'0 0.0
2019-Aug-09 04:59N 61°08' E 021°26'0 0.0
2019-Aug-09 04:26N 61°08' E 021°26'0 0.0
2019-Aug-09 03:59N 61°08' E 021°26'0 0.0
2019-Aug-09 03:23N 61°08' E 021°26'0 0.0
2019-Aug-09 02:56N 61°08' E 021°26'0 0.0
2019-Aug-09 02:29N 61°08' E 021°26'0 0.0
2019-Aug-09 01:29N 61°08' E 021°26'0 0.0
2019-Aug-09 00:56N 61°08' E 021°26'0 0.0
2019-Aug-09 00:29N 61°08' E 021°26'0 0.0
2019-Aug-08 23:59N 61°08' E 021°26'0 0.0
2019-Aug-08 23:29N 61°08' E 021°26'0 0.0
2019-Aug-08 22:59N 61°08' E 021°26'0 0.0
2019-Aug-08 22:29N 61°08' E 021°26'0 0.0
2019-Aug-08 21:59N 61°08' E 021°26'0 0.0
2019-Aug-08 21:08N 61°08' E 021°26'0 0.0
2019-Aug-08 20:59N 61°08' E 021°26'0 0.0
2019-Aug-08 20:29N 61°08' E 021°26'0 0.0
2019-Aug-08 19:53N 61°08' E 021°26'0 0.0
2019-Aug-08 19:23N 61°08' E 021°26'0 0.0
2019-Aug-08 18:59N 61°08' E 021°26'0 0.0
2019-Aug-08 18:23N 61°08' E 021°26'0 0.0
2019-Aug-08 17:53N 61°08' E 021°26'0 0.0
2019-Aug-08 17:29N 61°08' E 021°26'0 0.0
2019-Aug-08 16:56N 61°08' E 021°26'0 0.0
2019-Aug-08 16:29N 61°08' E 021°26'0 0.0
2019-Aug-08 15:56N 61°08' E 021°26'0 0.0
2019-Aug-08 15:29N 61°08' E 021°26'0 0.0
2019-Aug-08 14:59N 61°08' E 021°26'0 0.0
2019-Aug-08 14:29N 61°08' E 021°26'0 0.0
2019-Aug-08 13:53N 61°08' E 021°26'0 0.0
2019-Aug-08 13:29N 61°08' E 021°26'0 0.0
2019-Aug-08 12:56N 61°08' E 021°26'0 0.0
2019-Aug-08 12:26N 61°08' E 021°26'0 0.0
2019-Aug-08 11:53N 61°08' E 021°26'0 0.0
2019-Aug-08 11:26N 61°08' E 021°26'0 0.0
2019-Aug-08 10:59N 61°08' E 021°26'0 0.0
2019-Aug-08 10:23N 61°08' E 021°26'0 0.0
2019-Aug-08 09:59N 61°08' E 021°26'0 0.0
2019-Aug-08 09:29N 61°08' E 021°26'0 0.0
2019-Aug-08 08:59N 61°08' E 021°26'0 0.0
2019-Aug-08 08:26N 61°08' E 021°26'0 0.0
2019-Aug-08 07:59N 61°08' E 021°26'0 0.0
2019-Aug-08 07:29N 61°08' E 021°26'0 0.0
2019-Aug-08 06:59N 61°08' E 021°26'0 0.0
2019-Aug-08 06:29N 61°08' E 021°26'0 0.0
2019-Aug-08 05:59N 61°08' E 021°26'0 0.0
2019-Aug-08 05:29N 61°08' E 021°26'0 0.0
2019-Aug-08 04:59N 61°08' E 021°26'0 0.0
2019-Aug-08 04:29N 61°08' E 021°26'0 0.0
2019-Aug-08 03:59N 61°08' E 021°26'0 0.0
2019-Aug-08 03:29N 61°08' E 021°26'0 0.0
2019-Aug-08 02:59N 61°08' E 021°26'0 0.0
2019-Aug-08 02:29N 61°08' E 021°26'0 0.0
2019-Aug-08 01:59N 61°08' E 021°26'0 0.0
2019-Aug-08 01:29N 61°08' E 021°26'0 0.0
2019-Aug-08 00:53N 61°08' E 021°26'0 0.0
2019-Aug-08 00:29N 61°08' E 021°26'0 0.0
2019-Aug-07 23:56N 61°08' E 021°26'0 0.0
2019-Aug-07 23:28N 61°08' E 021°26'0 0.0
2019-Aug-07 22:59N 61°08' E 021°26'0 0.0
2019-Aug-07 22:25N 61°08' E 021°26'0 0.0
2019-Aug-07 21:58N 61°08' E 021°26'0 0.0
2019-Aug-07 21:25N 61°08' E 021°26'0 0.0
2019-Aug-07 20:59N 61°08' E 021°26'0 0.0
2019-Aug-07 20:25N 61°08' E 021°26'0 0.0
2019-Aug-07 19:55N 61°08' E 021°26'0 0.0
2019-Aug-07 19:22N 61°08' E 021°26'0 0.0
2019-Aug-07 18:55N 61°08' E 021°26'0 0.0
2019-Aug-07 18:22N 61°08' E 021°26'0 0.0
2019-Aug-07 17:58N 61°08' E 021°26'0 0.0
2019-Aug-07 17:28N 61°08' E 021°26'0 0.0
2019-Aug-07 16:58N 61°08' E 021°26'0 0.0
2019-Aug-07 16:28N 61°08' E 021°26'0 0.0
2019-Aug-07 15:58N 61°08' E 021°26'0 0.0
2019-Aug-07 15:28N 61°08' E 021°26'0 0.0
2019-Aug-07 14:59N 61°08' E 021°26'0 0.0
2019-Aug-07 14:28N 61°08' E 021°26'0 0.0
2019-Aug-07 13:58N 61°08' E 021°26'0 0.0
2019-Aug-07 13:25N 61°08' E 021°26'0 0.0
2019-Aug-07 12:58N 61°08' E 021°26'0 0.0
2019-Aug-07 12:25N 61°08' E 021°26'0 0.0
2019-Aug-07 11:58N 61°08' E 021°26'0 0.0
2019-Aug-07 11:28N 61°08' E 021°26'0 0.0
2019-Aug-07 10:46N 61°08' E 021°26'0 0.0
2019-Aug-07 10:25N 61°08' E 021°26'0 0.0
2019-Aug-07 09:58N 61°08' E 021°26'0 0.0
2019-Aug-07 09:28N 61°08' E 021°26'0 0.0
2019-Aug-07 08:58N 61°08' E 021°26'0 0.0
2019-Aug-07 08:25N 61°08' E 021°26'0 0.0
2019-Aug-07 07:58N 61°08' E 021°26'0 0.0
2019-Aug-07 07:28N 61°08' E 021°26'0 0.0
2019-Aug-07 06:58N 61°08' E 021°26'0 0.0
2019-Aug-07 06:25N 61°08' E 021°26'0 0.0
2019-Aug-07 05:58N 61°08' E 021°26'0 0.0
2019-Aug-07 05:25N 61°08' E 021°26'0 0.0
2019-Aug-07 04:58N 61°08' E 021°26'0 0.0
2019-Aug-07 04:28N 61°08' E 021°26'0 0.0
2019-Aug-07 03:58N 61°08' E 021°26'0 0.0
2019-Aug-07 03:28N 61°08' E 021°26'0 0.0
2019-Aug-07 02:58N 61°08' E 021°26'0 0.0
2019-Aug-07 02:28N 61°08' E 021°26'0 0.0
2019-Aug-07 01:58N 61°08' E 021°26'0 0.0
2019-Aug-07 01:28N 61°08' E 021°26'0 0.0
2019-Aug-07 00:58N 61°08' E 021°26'0 0.0
2019-Aug-07 00:25N 61°08' E 021°26'0 0.0
2019-Aug-06 23:58N 61°08' E 021°26'0 0.0
2019-Aug-06 23:28N 61°08' E 021°26'0 0.0
2019-Aug-06 22:58N 61°08' E 021°26'0 0.0
2019-Aug-06 22:25N 61°08' E 021°26'0 0.0
2019-Aug-06 21:58N 61°08' E 021°26'0 0.0
2019-Aug-06 21:25N 61°08' E 021°26'0 0.0
2019-Aug-06 20:55N 61°08' E 021°26'0 0.0
2019-Aug-06 20:25N 61°08' E 021°26'0 0.0
2019-Aug-06 19:46N 61°08' E 021°26'0 0.0
2019-Aug-06 19:25N 61°08' E 021°26'0 0.4
2019-Aug-06 19:00N 61°08' E 021°25'2 3.1
2019-Aug-06 18:30N 61°07' E 021°23'5 9.8
2019-Aug-06 18:00N 61°07' E 021°13'611.7
2019-Aug-06 17:30N 61°09' E 021°02'6414.3
2019-Aug-06 13:01N 60°34' E 019°13'015.0
2019-Aug-06 13:00N 60°34' E 019°13'1013.0
2019-Aug-06 12:12N 60°25' E 019°01'314.5
2019-Aug-06 12:00N 60°22' E 019°01'714.3
2019-Aug-06 11:30N 60°15' E 019°03'714.3
2019-Aug-06 11:00N 60°09' E 019°10'714.7
2019-Aug-06 10:30N 60°03' E 019°19'714.8
2019-Aug-06 10:00N 59°57' E 019°29'  

Dump ship's entire track history